sensor_id;sensor_type;location;lat;lon;timestamp;P1;durP1;ratioP1;P2;durP2;ratioP2
73684;SDS011;61985;51.070;14.064;2023-09-18T00:00:19;7.43;;;4.30;;
73684;SDS011;61985;51.070;14.064;2023-09-18T00:02:46;10.68;;;4.82;;
73684;SDS011;61985;51.070;14.064;2023-09-18T00:05:12;7.68;;;4.35;;
73684;SDS011;61985;51.070;14.064;2023-09-18T00:07:41;5.28;;;3.90;;
73684;SDS011;61985;51.070;14.064;2023-09-18T00:10:09;8.48;;;4.88;;
73684;SDS011;61985;51.070;14.064;2023-09-18T00:12:36;7.70;;;4.45;;
73684;SDS011;61985;51.070;14.064;2023-09-18T00:15:01;8.25;;;5.40;;
73684;SDS011;61985;51.070;14.064;2023-09-18T00:17:27;7.95;;;5.25;;
73684;SDS011;61985;51.070;14.064;2023-09-18T00:19:53;7.78;;;5.15;;
73684;SDS011;61985;51.070;14.064;2023-09-18T00:22:19;7.70;;;5.03;;
73684;SDS011;61985;51.070;14.064;2023-09-18T00:24:44;7.75;;;4.85;;
73684;SDS011;61985;51.070;14.064;2023-09-18T00:27:10;8.00;;;5.30;;
73684;SDS011;61985;51.070;14.064;2023-09-18T00:29:38;7.95;;;5.22;;
73684;SDS011;61985;51.070;14.064;2023-09-18T00:32:04;8.13;;;4.78;;
73684;SDS011;61985;51.070;14.064;2023-09-18T00:34:30;7.75;;;4.80;;
73684;SDS011;61985;51.070;14.064;2023-09-18T00:36:57;8.40;;;4.53;;
73684;SDS011;61985;51.070;14.064;2023-09-18T00:39:24;6.72;;;5.00;;
73684;SDS011;61985;51.070;14.064;2023-09-18T00:41:49;7.15;;;5.20;;
73684;SDS011;61985;51.070;14.064;2023-09-18T00:44:18;7.07;;;4.60;;
73684;SDS011;61985;51.070;14.064;2023-09-18T00:46:44;8.45;;;4.47;;
73684;SDS011;61985;51.070;14.064;2023-09-18T00:49:10;6.93;;;4.82;;
73684;SDS011;61985;51.070;14.064;2023-09-18T00:51:37;6.78;;;4.57;;
73684;SDS011;61985;51.070;14.064;2023-09-18T00:54:03;6.47;;;4.80;;
73684;SDS011;61985;51.070;14.064;2023-09-18T00:56:29;8.15;;;5.20;;
73684;SDS011;61985;51.070;14.064;2023-09-18T00:58:54;14.43;;;5.57;;
73684;SDS011;61985;51.070;14.064;2023-09-18T01:01:20;7.47;;;5.05;;
73684;SDS011;61985;51.070;14.064;2023-09-18T01:03:49;7.57;;;4.82;;
73684;SDS011;61985;51.070;14.064;2023-09-18T01:06:16;8.43;;;5.68;;
73684;SDS011;61985;51.070;14.064;2023-09-18T01:08:42;6.75;;;4.70;;
73684;SDS011;61985;51.070;14.064;2023-09-18T01:11:13;7.35;;;4.72;;
73684;SDS011;61985;51.070;14.064;2023-09-18T01:13:45;8.52;;;4.80;;
73684;SDS011;61985;51.070;14.064;2023-09-18T01:16:28;7.37;;;4.37;;
73684;SDS011;61985;51.070;14.064;2023-09-18T01:19:10;7.03;;;5.15;;
73684;SDS011;61985;51.070;14.064;2023-09-18T01:21:36;8.15;;;5.32;;
73684;SDS011;61985;51.070;14.064;2023-09-18T01:24:01;8.45;;;5.25;;
73684;SDS011;61985;51.070;14.064;2023-09-18T01:26:26;7.90;;;4.93;;
73684;SDS011;61985;51.070;14.064;2023-09-18T01:28:52;9.05;;;5.18;;
73684;SDS011;61985;51.070;14.064;2023-09-18T01:31:17;8.07;;;5.80;;
73684;SDS011;61985;51.070;14.064;2023-09-18T01:33:43;8.18;;;5.05;;
73684;SDS011;61985;51.070;14.064;2023-09-18T01:36:12;6.97;;;5.45;;
73684;SDS011;61985;51.070;14.064;2023-09-18T01:38:39;6.97;;;4.60;;
73684;SDS011;61985;51.070;14.064;2023-09-18T01:41:04;13.07;;;4.88;;
73684;SDS011;61985;51.070;14.064;2023-09-18T01:43:30;6.97;;;4.65;;
73684;SDS011;61985;51.070;14.064;2023-09-18T01:45:55;6.57;;;4.72;;
73684;SDS011;61985;51.070;14.064;2023-09-18T01:48:21;7.25;;;4.97;;
73684;SDS011;61985;51.070;14.064;2023-09-18T01:50:46;7.63;;;5.22;;
73684;SDS011;61985;51.070;14.064;2023-09-18T01:53:11;6.85;;;5.15;;
73684;SDS011;61985;51.070;14.064;2023-09-18T01:55:37;10.88;;;5.50;;
73684;SDS011;61985;51.070;14.064;2023-09-18T01:58:02;6.75;;;4.75;;
73684;SDS011;61985;51.070;14.064;2023-09-18T02:00:28;7.13;;;5.43;;
73684;SDS011;61985;51.070;14.064;2023-09-18T02:02:53;7.55;;;5.10;;
73684;SDS011;61985;51.070;14.064;2023-09-18T02:05:18;9.00;;;4.97;;
73684;SDS011;61985;51.070;14.064;2023-09-18T02:07:44;10.32;;;4.85;;
73684;SDS011;61985;51.070;14.064;2023-09-18T02:10:09;7.60;;;4.90;;
73684;SDS011;61985;51.070;14.064;2023-09-18T02:12:41;8.00;;;4.88;;
73684;SDS011;61985;51.070;14.064;2023-09-18T02:15:07;9.63;;;6.10;;
73684;SDS011;61985;51.070;14.064;2023-09-18T02:17:35;6.60;;;4.88;;
73684;SDS011;61985;51.070;14.064;2023-09-18T02:20:00;7.50;;;5.15;;
73684;SDS011;61985;51.070;14.064;2023-09-18T02:22:31;7.53;;;4.72;;
73684;SDS011;61985;51.070;14.064;2023-09-18T02:24:57;8.07;;;5.07;;
73684;SDS011;61985;51.070;14.064;2023-09-18T02:27:23;9.60;;;4.75;;
73684;SDS011;61985;51.070;14.064;2023-09-18T02:29:48;7.85;;;4.93;;
73684;SDS011;61985;51.070;14.064;2023-09-18T02:32:15;6.78;;;4.80;;
73684;SDS011;61985;51.070;14.064;2023-09-18T02:34:40;8.73;;;4.95;;
73684;SDS011;61985;51.070;14.064;2023-09-18T02:37:08;6.85;;;4.80;;
73684;SDS011;61985;51.070;14.064;2023-09-18T02:39:37;7.90;;;4.82;;
73684;SDS011;61985;51.070;14.064;2023-09-18T02:42:02;7.50;;;5.20;;
73684;SDS011;61985;51.070;14.064;2023-09-18T02:44:29;7.80;;;5.18;;
73684;SDS011;61985;51.070;14.064;2023-09-18T02:46:54;7.85;;;5.03;;
73684;SDS011;61985;51.070;14.064;2023-09-18T02:49:20;8.38;;;5.07;;
73684;SDS011;61985;51.070;14.064;2023-09-18T02:51:45;8.02;;;5.20;;
73684;SDS011;61985;51.070;14.064;2023-09-18T02:54:11;7.22;;;5.40;;
73684;SDS011;61985;51.070;14.064;2023-09-18T02:56:36;6.57;;;4.65;;
73684;SDS011;61985;51.070;14.064;2023-09-18T02:59:03;7.72;;;4.78;;
73684;SDS011;61985;51.070;14.064;2023-09-18T03:01:33;8.43;;;5.28;;
73684;SDS011;61985;51.070;14.064;2023-09-18T03:03:59;6.38;;;4.78;;
73684;SDS011;61985;51.070;14.064;2023-09-18T03:06:26;8.02;;;4.90;;
73684;SDS011;61985;51.070;14.064;2023-09-18T03:08:51;6.75;;;4.95;;
73684;SDS011;61985;51.070;14.064;2023-09-18T03:11:18;8.05;;;4.72;;
73684;SDS011;61985;51.070;14.064;2023-09-18T03:13:43;8.10;;;5.05;;
73684;SDS011;61985;51.070;14.064;2023-09-18T03:16:12;7.32;;;4.80;;
73684;SDS011;61985;51.070;14.064;2023-09-18T03:18:38;7.22;;;5.03;;
73684;SDS011;61985;51.070;14.064;2023-09-18T03:21:04;7.90;;;4.95;;
73684;SDS011;61985;51.070;14.064;2023-09-18T03:23:32;9.60;;;5.38;;
73684;SDS011;61985;51.070;14.064;2023-09-18T03:25:57;9.63;;;5.13;;
73684;SDS011;61985;51.070;14.064;2023-09-18T03:28:24;7.90;;;5.45;;
73684;SDS011;61985;51.070;14.064;2023-09-18T03:30:50;8.50;;;5.40;;
73684;SDS011;61985;51.070;14.064;2023-09-18T03:33:15;8.25;;;4.85;;
73684;SDS011;61985;51.070;14.064;2023-09-18T03:35:47;7.47;;;5.32;;
73684;SDS011;61985;51.070;14.064;2023-09-18T03:38:14;9.98;;;5.50;;
73684;SDS011;61985;51.070;14.064;2023-09-18T03:40:40;7.60;;;5.50;;
73684;SDS011;61985;51.070;14.064;2023-09-18T03:43:06;7.78;;;5.55;;
73684;SDS011;61985;51.070;14.064;2023-09-18T03:45:37;7.80;;;5.40;;
73684;SDS011;61985;51.070;14.064;2023-09-18T03:48:04;10.55;;;5.65;;
73684;SDS011;61985;51.070;14.064;2023-09-18T03:50:32;7.43;;;5.28;;
73684;SDS011;61985;51.070;14.064;2023-09-18T03:52:57;7.43;;;5.05;;
73684;SDS011;61985;51.070;14.064;2023-09-18T03:55:23;7.38;;;4.80;;
73684;SDS011;61985;51.070;14.064;2023-09-18T03:57:49;10.10;;;5.70;;
73684;SDS011;61985;51.070;14.064;2023-09-18T04:00:18;9.40;;;5.68;;
73684;SDS011;61985;51.070;14.064;2023-09-18T04:02:43;9.90;;;5.72;;
73684;SDS011;61985;51.070;14.064;2023-09-18T04:05:09;6.47;;;4.90;;
73684;SDS011;61985;51.070;14.064;2023-09-18T04:07:37;7.20;;;5.40;;
73684;SDS011;61985;51.070;14.064;2023-09-18T04:10:03;11.88;;;6.13;;
73684;SDS011;61985;51.070;14.064;2023-09-18T04:12:30;7.18;;;5.32;;
73684;SDS011;61985;51.070;14.064;2023-09-18T04:14:56;9.27;;;5.57;;
73684;SDS011;61985;51.070;14.064;2023-09-18T04:17:22;9.00;;;6.07;;
73684;SDS011;61985;51.070;14.064;2023-09-18T04:19:48;8.38;;;5.35;;
73684;SDS011;61985;51.070;14.064;2023-09-18T04:22:13;8.65;;;5.63;;
73684;SDS011;61985;51.070;14.064;2023-09-18T04:24:39;8.18;;;5.38;;
73684;SDS011;61985;51.070;14.064;2023-09-18T04:27:04;8.23;;;5.53;;
73684;SDS011;61985;51.070;14.064;2023-09-18T04:29:32;8.38;;;5.75;;
73684;SDS011;61985;51.070;14.064;2023-09-18T04:31:58;7.15;;;5.50;;
73684;SDS011;61985;51.070;14.064;2023-09-18T04:34:24;7.25;;;5.20;;
73684;SDS011;61985;51.070;14.064;2023-09-18T04:36:49;7.20;;;5.35;;
73684;SDS011;61985;51.070;14.064;2023-09-18T04:39:15;9.20;;;5.80;;
73684;SDS011;61985;51.070;14.064;2023-09-18T04:41:41;7.70;;;5.40;;
73684;SDS011;61985;51.070;14.064;2023-09-18T04:44:08;7.15;;;5.50;;
73684;SDS011;61985;51.070;14.064;2023-09-18T04:46:37;9.25;;;5.68;;
73684;SDS011;61985;51.070;14.064;2023-09-18T04:49:03;6.65;;;5.05;;
73684;SDS011;61985;51.070;14.064;2023-09-18T04:51:29;8.20;;;5.95;;
73684;SDS011;61985;51.070;14.064;2023-09-18T04:53:57;8.18;;;5.65;;
73684;SDS011;61985;51.070;14.064;2023-09-18T04:56:22;9.52;;;5.70;;
73684;SDS011;61985;51.070;14.064;2023-09-18T04:58:50;8.88;;;6.00;;
73684;SDS011;61985;51.070;14.064;2023-09-18T05:01:16;7.78;;;5.63;;
73684;SDS011;61985;51.070;14.064;2023-09-18T05:03:42;8.55;;;5.50;;
73684;SDS011;61985;51.070;14.064;2023-09-18T05:06:08;8.73;;;5.20;;
73684;SDS011;61985;51.070;14.064;2023-09-18T05:08:33;8.50;;;6.10;;
73684;SDS011;61985;51.070;14.064;2023-09-18T05:10:58;9.85;;;6.10;;
73684;SDS011;61985;51.070;14.064;2023-09-18T05:13:24;8.90;;;6.05;;
73684;SDS011;61985;51.070;14.064;2023-09-18T05:15:49;9.27;;;6.00;;
73684;SDS011;61985;51.070;14.064;2023-09-18T05:18:15;8.68;;;6.47;;
73684;SDS011;61985;51.070;14.064;2023-09-18T05:20:41;9.30;;;6.00;;
73684;SDS011;61985;51.070;14.064;2023-09-18T05:23:15;9.05;;;6.25;;
73684;SDS011;61985;51.070;14.064;2023-09-18T05:25:41;8.70;;;6.70;;
73684;SDS011;61985;51.070;14.064;2023-09-18T05:28:12;9.13;;;6.00;;
73684;SDS011;61985;51.070;14.064;2023-09-18T05:30:45;8.55;;;5.95;;
73684;SDS011;61985;51.070;14.064;2023-09-18T05:33:13;10.55;;;6.65;;
73684;SDS011;61985;51.070;14.064;2023-09-18T05:35:42;9.13;;;6.30;;
73684;SDS011;61985;51.070;14.064;2023-09-18T05:38:12;8.50;;;5.78;;
73684;SDS011;61985;51.070;14.064;2023-09-18T05:40:43;8.65;;;5.95;;
73684;SDS011;61985;51.070;14.064;2023-09-18T05:43:10;10.70;;;6.35;;
73684;SDS011;61985;51.070;14.064;2023-09-18T05:45:37;8.93;;;6.00;;
73684;SDS011;61985;51.070;14.064;2023-09-18T05:48:05;9.30;;;6.50;;
73684;SDS011;61985;51.070;14.064;2023-09-18T05:50:34;11.68;;;7.00;;
73684;SDS011;61985;51.070;14.064;2023-09-18T05:53:03;9.40;;;5.53;;
73684;SDS011;61985;51.070;14.064;2023-09-18T05:55:34;10.20;;;6.60;;
73684;SDS011;61985;51.070;14.064;2023-09-18T05:58:00;8.10;;;5.93;;
73684;SDS011;61985;51.070;14.064;2023-09-18T06:00:35;8.20;;;5.82;;
73684;SDS011;61985;51.070;14.064;2023-09-18T06:03:03;9.80;;;6.35;;
73684;SDS011;61985;51.070;14.064;2023-09-18T06:05:32;9.43;;;6.40;;
73684;SDS011;61985;51.070;14.064;2023-09-18T06:07:59;9.50;;;6.32;;
73684;SDS011;61985;51.070;14.064;2023-09-18T06:10:25;13.13;;;6.68;;
73684;SDS011;61985;51.070;14.064;2023-09-18T06:12:50;11.48;;;6.43;;
73684;SDS011;61985;51.070;14.064;2023-09-18T06:15:16;8.18;;;6.28;;
73684;SDS011;61985;51.070;14.064;2023-09-18T06:17:45;10.27;;;7.10;;
73684;SDS011;61985;51.070;14.064;2023-09-18T06:20:10;9.93;;;6.45;;
73684;SDS011;61985;51.070;14.064;2023-09-18T06:22:38;9.75;;;6.60;;
73684;SDS011;61985;51.070;14.064;2023-09-18T06:25:07;9.95;;;7.03;;
73684;SDS011;61985;51.070;14.064;2023-09-18T06:27:36;12.73;;;6.10;;
73684;SDS011;61985;51.070;14.064;2023-09-18T06:30:03;7.20;;;5.70;;
73684;SDS011;61985;51.070;14.064;2023-09-18T06:32:29;11.00;;;6.50;;
73684;SDS011;61985;51.070;14.064;2023-09-18T06:34:55;7.47;;;5.72;;
73684;SDS011;61985;51.070;14.064;2023-09-18T06:37:22;12.25;;;6.32;;
73684;SDS011;61985;51.070;14.064;2023-09-18T06:39:48;10.23;;;6.15;;
73684;SDS011;61985;51.070;14.064;2023-09-18T06:45:11;9.63;;;6.30;;
73684;SDS011;61985;51.070;14.064;2023-09-18T06:51:07;8.85;;;5.85;;
73684;SDS011;61985;51.070;14.064;2023-09-18T06:53:43;9.05;;;6.00;;
73684;SDS011;61985;51.070;14.064;2023-09-18T06:56:12;8.90;;;6.18;;
73684;SDS011;61985;51.070;14.064;2023-09-18T06:58:49;9.98;;;5.85;;
73684;SDS011;61985;51.070;14.064;2023-09-18T07:01:16;9.82;;;6.40;;
73684;SDS011;61985;51.070;14.064;2023-09-18T07:03:53;8.20;;;6.03;;
73684;SDS011;61985;51.070;14.064;2023-09-18T07:06:19;7.53;;;5.72;;
73684;SDS011;61985;51.070;14.064;2023-09-18T07:08:47;10.90;;;6.07;;
73684;SDS011;61985;51.070;14.064;2023-09-18T07:11:24;7.97;;;5.78;;
73684;SDS011;61985;51.070;14.064;2023-09-18T07:14:05;7.60;;;5.68;;
73684;SDS011;61985;51.070;14.064;2023-09-18T07:16:39;10.40;;;6.38;;
73684;SDS011;61985;51.070;14.064;2023-09-18T07:19:05;7.90;;;6.22;;
73684;SDS011;61985;51.070;14.064;2023-09-18T07:21:30;9.02;;;5.97;;
73684;SDS011;61985;51.070;14.064;2023-09-18T07:24:01;8.68;;;5.60;;
73684;SDS011;61985;51.070;14.064;2023-09-18T07:26:27;9.98;;;6.22;;
73684;SDS011;61985;51.070;14.064;2023-09-18T07:29:00;12.05;;;5.95;;
73684;SDS011;61985;51.070;14.064;2023-09-18T07:31:26;10.70;;;6.10;;
73684;SDS011;61985;51.070;14.064;2023-09-18T07:34:00;13.07;;;5.68;;
73684;SDS011;61985;51.070;14.064;2023-09-18T07:36:29;8.73;;;5.55;;
73684;SDS011;61985;51.070;14.064;2023-09-18T07:38:57;7.70;;;5.60;;
73684;SDS011;61985;51.070;14.064;2023-09-18T07:41:23;9.63;;;5.80;;
73684;SDS011;61985;51.070;14.064;2023-09-18T07:43:51;7.85;;;5.30;;
73684;SDS011;61985;51.070;14.064;2023-09-18T07:46:19;10.20;;;5.70;;
73684;SDS011;61985;51.070;14.064;2023-09-18T07:48:47;8.85;;;5.80;;
73684;SDS011;61985;51.070;14.064;2023-09-18T07:51:12;12.65;;;5.70;;
73684;SDS011;61985;51.070;14.064;2023-09-18T07:53:41;7.90;;;5.47;;
73684;SDS011;61985;51.070;14.064;2023-09-18T07:56:07;11.85;;;5.90;;
73684;SDS011;61985;51.070;14.064;2023-09-18T07:58:32;9.70;;;5.90;;
73684;SDS011;61985;51.070;14.064;2023-09-18T08:00:58;9.32;;;5.68;;
73684;SDS011;61985;51.070;14.064;2023-09-18T08:03:25;7.28;;;5.47;;
73684;SDS011;61985;51.070;14.064;2023-09-18T08:05:51;8.00;;;5.80;;
73684;SDS011;61985;51.070;14.064;2023-09-18T08:08:18;9.20;;;6.00;;
73684;SDS011;61985;51.070;14.064;2023-09-18T08:10:45;8.52;;;5.70;;
73684;SDS011;61985;51.070;14.064;2023-09-18T08:13:11;8.23;;;5.50;;
73684;SDS011;61985;51.070;14.064;2023-09-18T08:15:36;7.80;;;5.65;;
73684;SDS011;61985;51.070;14.064;2023-09-18T08:18:02;10.02;;;7.82;;
73684;SDS011;61985;51.070;14.064;2023-09-18T08:20:28;8.45;;;5.60;;
73684;SDS011;61985;51.070;14.064;2023-09-18T08:22:54;8.75;;;5.63;;
73684;SDS011;61985;51.070;14.064;2023-09-18T08:25:19;7.72;;;5.63;;
73684;SDS011;61985;51.070;14.064;2023-09-18T08:27:44;8.63;;;5.30;;
73684;SDS011;61985;51.070;14.064;2023-09-18T08:30:11;8.07;;;5.10;;
73684;SDS011;61985;51.070;14.064;2023-09-18T08:32:38;13.48;;;5.88;;
73684;SDS011;61985;51.070;14.064;2023-09-18T08:35:04;8.18;;;5.10;;
73684;SDS011;61985;51.070;14.064;2023-09-18T08:37:30;7.93;;;5.95;;
73684;SDS011;61985;51.070;14.064;2023-09-18T08:39:56;7.40;;;5.38;;
73684;SDS011;61985;51.070;14.064;2023-09-18T08:44:54;7.22;;;5.57;;
73684;SDS011;61985;51.070;14.064;2023-09-18T08:47:23;8.35;;;5.55;;
73684;SDS011;61985;51.070;14.064;2023-09-18T08:49:50;7.55;;;5.30;;
73684;SDS011;61985;51.070;14.064;2023-09-18T08:52:18;9.45;;;5.55;;
73684;SDS011;61985;51.070;14.064;2023-09-18T08:54:43;8.20;;;5.30;;
73684;SDS011;61985;51.070;14.064;2023-09-18T08:57:09;9.15;;;5.20;;
73684;SDS011;61985;51.070;14.064;2023-09-18T08:59:35;7.13;;;5.28;;
73684;SDS011;61985;51.070;14.064;2023-09-18T09:02:03;11.32;;;5.75;;
73684;SDS011;61985;51.070;14.064;2023-09-18T09:04:29;9.35;;;5.55;;
73684;SDS011;61985;51.070;14.064;2023-09-18T09:06:55;7.47;;;5.45;;
73684;SDS011;61985;51.070;14.064;2023-09-18T09:09:24;8.18;;;5.20;;
73684;SDS011;61985;51.070;14.064;2023-09-18T09:11:51;6.90;;;5.45;;
73684;SDS011;61985;51.070;14.064;2023-09-18T09:14:17;13.20;;;6.15;;
73684;SDS011;61985;51.070;14.064;2023-09-18T09:16:46;7.85;;;5.30;;
73684;SDS011;61985;51.070;14.064;2023-09-18T09:19:13;7.75;;;5.47;;
73684;SDS011;61985;51.070;14.064;2023-09-18T09:21:40;8.82;;;5.65;;
73684;SDS011;61985;51.070;14.064;2023-09-18T09:24:08;8.15;;;5.65;;
73684;SDS011;61985;51.070;14.064;2023-09-18T09:26:35;9.10;;;5.68;;
73684;SDS011;61985;51.070;14.064;2023-09-18T09:29:13;7.75;;;5.32;;
73684;SDS011;61985;51.070;14.064;2023-09-18T09:31:43;9.50;;;5.70;;
73684;SDS011;61985;51.070;14.064;2023-09-18T09:34:10;8.27;;;5.50;;
73684;SDS011;61985;51.070;14.064;2023-09-18T09:36:36;8.15;;;5.00;;
73684;SDS011;61985;51.070;14.064;2023-09-18T09:39:01;11.07;;;4.95;;
73684;SDS011;61985;51.070;14.064;2023-09-18T09:41:30;10.02;;;4.80;;
73684;SDS011;61985;51.070;14.064;2023-09-18T09:44:07;9.73;;;4.97;;
73684;SDS011;61985;51.070;14.064;2023-09-18T09:46:33;6.50;;;4.68;;
73684;SDS011;61985;51.070;14.064;2023-09-18T09:49:02;10.75;;;4.72;;
73684;SDS011;61985;51.070;14.064;2023-09-18T09:51:28;7.20;;;5.05;;
73684;SDS011;61985;51.070;14.064;2023-09-18T09:53:54;6.63;;;4.90;;
73684;SDS011;61985;51.070;14.064;2023-09-18T09:56:20;8.30;;;4.75;;
73684;SDS011;61985;51.070;14.064;2023-09-18T09:59:02;9.50;;;5.13;;
73684;SDS011;61985;51.070;14.064;2023-09-18T10:01:33;10.25;;;4.60;;
73684;SDS011;61985;51.070;14.064;2023-09-18T10:03:59;7.18;;;4.50;;
73684;SDS011;61985;51.070;14.064;2023-09-18T10:06:25;7.40;;;4.50;;
73684;SDS011;61985;51.070;14.064;2023-09-18T10:08:55;7.35;;;4.60;;
73684;SDS011;61985;51.070;14.064;2023-09-18T10:11:21;7.97;;;5.07;;
73684;SDS011;61985;51.070;14.064;2023-09-18T10:16:20;6.65;;;4.72;;
73684;SDS011;61985;51.070;14.064;2023-09-18T10:21:44;8.40;;;4.75;;
73684;SDS011;61985;51.070;14.064;2023-09-18T10:26:54;7.05;;;4.57;;
73684;SDS011;61985;51.070;14.064;2023-09-18T10:29:27;7.03;;;4.95;;
73684;SDS011;61985;51.070;14.064;2023-09-18T10:31:55;7.00;;;4.45;;
73684;SDS011;61985;51.070;14.064;2023-09-18T10:34:21;7.60;;;5.15;;
73684;SDS011;61985;51.070;14.064;2023-09-18T10:36:49;10.73;;;4.55;;
73684;SDS011;61985;51.070;14.064;2023-09-18T10:39:15;6.65;;;4.32;;
73684;SDS011;61985;51.070;14.064;2023-09-18T10:41:51;7.45;;;4.32;;
73684;SDS011;61985;51.070;14.064;2023-09-18T10:44:18;6.45;;;4.40;;
73684;SDS011;61985;51.070;14.064;2023-09-18T10:46:47;6.68;;;4.57;;
73684;SDS011;61985;51.070;14.064;2023-09-18T10:49:17;5.65;;;4.10;;
73684;SDS011;61985;51.070;14.064;2023-09-18T10:51:43;7.07;;;4.13;;
73684;SDS011;61985;51.070;14.064;2023-09-18T10:54:11;6.72;;;4.43;;
73684;SDS011;61985;51.070;14.064;2023-09-18T10:56:41;7.32;;;4.40;;
73684;SDS011;61985;51.070;14.064;2023-09-18T10:59:07;10.02;;;4.50;;
73684;SDS011;61985;51.070;14.064;2023-09-18T11:01:34;9.63;;;4.70;;
73684;SDS011;61985;51.070;14.064;2023-09-18T11:04:01;6.18;;;4.10;;
73684;SDS011;61985;51.070;14.064;2023-09-18T11:06:33;10.68;;;4.35;;
73684;SDS011;61985;51.070;14.064;2023-09-18T11:09:20;11.32;;;4.38;;
73684;SDS011;61985;51.070;14.064;2023-09-18T11:11:45;7.15;;;4.70;;
73684;SDS011;61985;51.070;14.064;2023-09-18T11:14:13;5.70;;;4.18;;
73684;SDS011;61985;51.070;14.064;2023-09-18T11:16:40;7.93;;;4.72;;
73684;SDS011;61985;51.070;14.064;2023-09-18T11:19:12;6.00;;;4.40;;
73684;SDS011;61985;51.070;14.064;2023-09-18T11:21:42;7.40;;;4.50;;
73684;SDS011;61985;51.070;14.064;2023-09-18T11:24:14;6.00;;;4.32;;
73684;SDS011;61985;51.070;14.064;2023-09-18T11:26:45;6.85;;;4.50;;
73684;SDS011;61985;51.070;14.064;2023-09-18T11:29:14;5.47;;;4.28;;
73684;SDS011;61985;51.070;14.064;2023-09-18T11:36:54;5.93;;;4.20;;
73684;SDS011;61985;51.070;14.064;2023-09-18T11:39:39;9.43;;;4.80;;
73684;SDS011;61985;51.070;14.064;2023-09-18T11:42:09;9.73;;;4.50;;
73684;SDS011;61985;51.070;14.064;2023-09-18T11:44:36;7.97;;;4.82;;
73684;SDS011;61985;51.070;14.064;2023-09-18T11:47:06;9.40;;;5.25;;
73684;SDS011;61985;51.070;14.064;2023-09-18T11:49:33;7.47;;;4.60;;
73684;SDS011;61985;51.070;14.064;2023-09-18T11:52:00;8.43;;;4.50;;
73684;SDS011;61985;51.070;14.064;2023-09-18T11:54:29;6.63;;;4.57;;
73684;SDS011;61985;51.070;14.064;2023-09-18T11:57:02;7.28;;;4.63;;
73684;SDS011;61985;51.070;14.064;2023-09-18T11:59:34;8.00;;;4.95;;
73684;SDS011;61985;51.070;14.064;2023-09-18T12:02:01;6.68;;;4.50;;
73684;SDS011;61985;51.070;14.064;2023-09-18T12:04:31;10.15;;;5.25;;
73684;SDS011;61985;51.070;14.064;2023-09-18T12:06:58;8.05;;;4.55;;
73684;SDS011;61985;51.070;14.064;2023-09-18T12:09:26;8.38;;;4.72;;
73684;SDS011;61985;51.070;14.064;2023-09-18T12:11:52;8.30;;;5.20;;
73684;SDS011;61985;51.070;14.064;2023-09-18T12:14:19;9.85;;;4.72;;
73684;SDS011;61985;51.070;14.064;2023-09-18T12:16:45;9.63;;;5.03;;
73684;SDS011;61985;51.070;14.064;2023-09-18T12:19:20;10.07;;;4.90;;
73684;SDS011;61985;51.070;14.064;2023-09-18T12:21:46;7.43;;;4.90;;
73684;SDS011;61985;51.070;14.064;2023-09-18T12:24:15;7.45;;;5.32;;
73684;SDS011;61985;51.070;14.064;2023-09-18T12:26:45;7.55;;;4.82;;
73684;SDS011;61985;51.070;14.064;2023-09-18T12:29:10;8.02;;;5.00;;
73684;SDS011;61985;51.070;14.064;2023-09-18T12:31:36;7.50;;;4.88;;
73684;SDS011;61985;51.070;14.064;2023-09-18T12:34:02;7.22;;;5.00;;
73684;SDS011;61985;51.070;14.064;2023-09-18T12:36:28;8.85;;;4.90;;
73684;SDS011;61985;51.070;14.064;2023-09-18T12:38:55;7.50;;;4.50;;
73684;SDS011;61985;51.070;14.064;2023-09-18T12:41:23;10.13;;;5.05;;
73684;SDS011;61985;51.070;14.064;2023-09-18T12:43:49;7.10;;;4.88;;
73684;SDS011;61985;51.070;14.064;2023-09-18T12:46:15;9.75;;;5.47;;
73684;SDS011;61985;51.070;14.064;2023-09-18T12:48:40;8.68;;;5.07;;
73684;SDS011;61985;51.070;14.064;2023-09-18T12:51:12;8.27;;;5.00;;
73684;SDS011;61985;51.070;14.064;2023-09-18T12:53:39;10.75;;;5.40;;
73684;SDS011;61985;51.070;14.064;2023-09-18T12:56:08;8.52;;;5.65;;
73684;SDS011;61985;51.070;14.064;2023-09-18T12:58:35;7.93;;;5.22;;
73684;SDS011;61985;51.070;14.064;2023-09-18T13:01:03;7.00;;;5.78;;
73684;SDS011;61985;51.070;14.064;2023-09-18T13:03:33;8.27;;;4.45;;
73684;SDS011;61985;51.070;14.064;2023-09-18T13:06:07;7.68;;;5.05;;
73684;SDS011;61985;51.070;14.064;2023-09-18T13:08:36;8.82;;;5.25;;
73684;SDS011;61985;51.070;14.064;2023-09-18T13:11:02;7.63;;;5.03;;
73684;SDS011;61985;51.070;14.064;2023-09-18T13:13:31;12.98;;;5.60;;
73684;SDS011;61985;51.070;14.064;2023-09-18T13:15:58;7.70;;;5.15;;
73684;SDS011;61985;51.070;14.064;2023-09-18T13:18:24;7.40;;;5.20;;
73684;SDS011;61985;51.070;14.064;2023-09-18T13:20:51;7.40;;;4.75;;
73684;SDS011;61985;51.070;14.064;2023-09-18T13:23:17;8.48;;;5.10;;
73684;SDS011;61985;51.070;14.064;2023-09-18T13:25:42;8.45;;;5.00;;
73684;SDS011;61985;51.070;14.064;2023-09-18T13:28:09;13.10;;;5.03;;
73684;SDS011;61985;51.070;14.064;2023-09-18T13:30:36;6.97;;;4.70;;
73684;SDS011;61985;51.070;14.064;2023-09-18T13:33:09;8.30;;;5.00;;
73684;SDS011;61985;51.070;14.064;2023-09-18T13:35:37;11.73;;;5.57;;
73684;SDS011;61985;51.070;14.064;2023-09-18T13:38:06;7.15;;;5.10;;
73684;SDS011;61985;51.070;14.064;2023-09-18T13:40:33;7.88;;;4.93;;
73684;SDS011;61985;51.070;14.064;2023-09-18T13:43:01;7.20;;;5.15;;
73684;SDS011;61985;51.070;14.064;2023-09-18T13:45:28;8.30;;;4.75;;
73684;SDS011;61985;51.070;14.064;2023-09-18T13:47:55;8.48;;;5.20;;
73684;SDS011;61985;51.070;14.064;2023-09-18T13:50:20;6.03;;;4.63;;
73684;SDS011;61985;51.070;14.064;2023-09-18T13:52:53;7.43;;;5.25;;
73684;SDS011;61985;51.070;14.064;2023-09-18T13:55:19;7.93;;;5.32;;
73684;SDS011;61985;51.070;14.064;2023-09-18T13:57:44;7.80;;;5.00;;
73684;SDS011;61985;51.070;14.064;2023-09-18T14:00:10;7.88;;;5.07;;
73684;SDS011;61985;51.070;14.064;2023-09-18T14:02:39;8.23;;;4.70;;
73684;SDS011;61985;51.070;14.064;2023-09-18T14:05:05;7.68;;;4.78;;
73684;SDS011;61985;51.070;14.064;2023-09-18T14:07:34;7.25;;;4.28;;
73684;SDS011;61985;51.070;14.064;2023-09-18T14:09:59;9.05;;;4.80;;
73684;SDS011;61985;51.070;14.064;2023-09-18T14:12:28;13.48;;;4.72;;
73684;SDS011;61985;51.070;14.064;2023-09-18T14:14:58;7.60;;;4.68;;
73684;SDS011;61985;51.070;14.064;2023-09-18T14:17:24;10.43;;;4.90;;
73684;SDS011;61985;51.070;14.064;2023-09-18T14:19:50;9.60;;;5.15;;
73684;SDS011;61985;51.070;14.064;2023-09-18T14:22:18;13.05;;;5.03;;
73684;SDS011;61985;51.070;14.064;2023-09-18T14:24:44;13.70;;;5.20;;
73684;SDS011;61985;51.070;14.064;2023-09-18T14:27:09;9.63;;;5.35;;
73684;SDS011;61985;51.070;14.064;2023-09-18T14:29:37;10.48;;;5.00;;
73684;SDS011;61985;51.070;14.064;2023-09-18T14:32:03;7.30;;;4.50;;
73684;SDS011;61985;51.070;14.064;2023-09-18T14:34:29;7.63;;;5.15;;
73684;SDS011;61985;51.070;14.064;2023-09-18T14:36:55;10.70;;;5.68;;
73684;SDS011;61985;51.070;14.064;2023-09-18T14:41:56;16.42;;;7.18;;
73684;SDS011;61985;51.070;14.064;2023-09-18T14:44:22;14.30;;;7.47;;
73684;SDS011;61985;51.070;14.064;2023-09-18T14:46:52;13.95;;;6.13;;
73684;SDS011;61985;51.070;14.064;2023-09-18T14:49:19;9.77;;;5.40;;
73684;SDS011;61985;51.070;14.064;2023-09-18T14:51:44;8.52;;;5.10;;
73684;SDS011;61985;51.070;14.064;2023-09-18T14:54:11;8.55;;;5.05;;
73684;SDS011;61985;51.070;14.064;2023-09-18T14:56:36;10.18;;;5.20;;
73684;SDS011;61985;51.070;14.064;2023-09-18T15:48:07;11.13;;;5.75;;